sensor_id;sensor_type;location;lat;lon;timestamp;temperature;humidity
14769;DHT22;7476;49.404;11.152;2023-05-08T00:00:57;10.90;99.90
14769;DHT22;7476;49.404;11.152;2023-05-08T00:03:24;10.90;99.90
14769;DHT22;7476;49.404;11.152;2023-05-08T00:05:51;11.10;99.90
14769;DHT22;7476;49.404;11.152;2023-05-08T00:08:21;11.10;99.90
14769;DHT22;7476;49.404;11.152;2023-05-08T00:10:48;11.10;99.90
14769;DHT22;7476;49.404;11.152;2023-05-08T00:13:15;11.20;99.90
14769;DHT22;7476;49.404;11.152;2023-05-08T00:15:41;11.20;99.90
14769;DHT22;7476;49.404;11.152;2023-05-08T00:18:08;11.30;99.90
14769;DHT22;7476;49.404;11.152;2023-05-08T00:20:35;11.30;99.90
14769;DHT22;7476;49.404;11.152;2023-05-08T00:23:02;11.30;99.90
14769;DHT22;7476;49.404;11.152;2023-05-08T00:25:30;11.40;99.90
14769;DHT22;7476;49.404;11.152;2023-05-08T00:27:57;11.40;99.90
14769;DHT22;7476;49.404;11.152;2023-05-08T00:30:23;11.40;99.90
14769;DHT22;7476;49.404;11.152;2023-05-08T00:32:50;11.40;99.90
14769;DHT22;7476;49.404;11.152;2023-05-08T00:35:17;11.40;99.90
14769;DHT22;7476;49.404;11.152;2023-05-08T00:37:44;11.40;99.90
14769;DHT22;7476;49.404;11.152;2023-05-08T00:40:11;11.20;99.90
14769;DHT22;7476;49.404;11.152;2023-05-08T00:42:39;11.20;99.90
14769;DHT22;7476;49.404;11.152;2023-05-08T00:45:07;11.20;99.90
14769;DHT22;7476;49.404;11.152;2023-05-08T00:47:34;11.20;99.90
14769;DHT22;7476;49.404;11.152;2023-05-08T00:50:01;11.10;99.90
14769;DHT22;7476;49.404;11.152;2023-05-08T00:52:30;11.10;99.90
14769;DHT22;7476;49.404;11.152;2023-05-08T00:54:57;11.00;99.90
14769;DHT22;7476;49.404;11.152;2023-05-08T00:57:24;11.00;99.90
14769;DHT22;7476;49.404;11.152;2023-05-08T00:59:53;11.00;99.90
14769;DHT22;7476;49.404;11.152;2023-05-08T01:02:20;11.00;99.90
14769;DHT22;7476;49.404;11.152;2023-05-08T01:04:47;11.10;99.90
14769;DHT22;7476;49.404;11.152;2023-05-08T01:07:14;10.90;99.90
14769;DHT22;7476;49.404;11.152;2023-05-08T01:09:42;10.80;99.90
14769;DHT22;7476;49.404;11.152;2023-05-08T01:12:15;10.60;99.90
14769;DHT22;7476;49.404;11.152;2023-05-08T01:14:55;10.60;99.90
14769;DHT22;7476;49.404;11.152;2023-05-08T01:17:27;10.40;99.90
14769;DHT22;7476;49.404;11.152;2023-05-08T01:20:12;10.30;99.90
14769;DHT22;7476;49.404;11.152;2023-05-08T01:26:27;10.20;99.90
14769;DHT22;7476;49.404;11.152;2023-05-08T01:32:19;10.40;99.90
14769;DHT22;7476;49.404;11.152;2023-05-08T01:34:56;10.50;99.90
14769;DHT22;7476;49.404;11.152;2023-05-08T01:37:29;10.60;99.90
14769;DHT22;7476;49.404;11.152;2023-05-08T01:40:08;10.70;99.90
14769;DHT22;7476;49.404;11.152;2023-05-08T01:42:42;10.80;99.90
14769;DHT22;7476;49.404;11.152;2023-05-08T01:45:15;10.90;99.90
14769;DHT22;7476;49.404;11.152;2023-05-08T01:47:49;11.00;99.90
14769;DHT22;7476;49.404;11.152;2023-05-08T01:50:24;11.00;99.90
14769;DHT22;7476;49.404;11.152;2023-05-08T01:52:57;11.10;99.90
14769;DHT22;7476;49.404;11.152;2023-05-08T01:55:28;11.10;99.90
14769;DHT22;7476;49.404;11.152;2023-05-08T01:57:57;11.10;99.90
14769;DHT22;7476;49.404;11.152;2023-05-08T02:00:25;11.10;99.90
14769;DHT22;7476;49.404;11.152;2023-05-08T02:02:55;11.10;99.90
14769;DHT22;7476;49.404;11.152;2023-05-08T02:05:23;11.10;99.90
14769;DHT22;7476;49.404;11.152;2023-05-08T02:07:51;11.10;99.90
14769;DHT22;7476;49.404;11.152;2023-05-08T02:10:19;11.00;99.90
14769;DHT22;7476;49.404;11.152;2023-05-08T02:12:47;11.00;99.90
14769;DHT22;7476;49.404;11.152;2023-05-08T02:15:16;10.90;99.90
14769;DHT22;7476;49.404;11.152;2023-05-08T02:17:46;10.70;99.90
14769;DHT22;7476;49.404;11.152;2023-05-08T02:20:15;10.70;99.90
14769;DHT22;7476;49.404;11.152;2023-05-08T02:22:43;10.60;99.90
14769;DHT22;7476;49.404;11.152;2023-05-08T02:25:12;10.80;99.90
14769;DHT22;7476;49.404;11.152;2023-05-08T02:27:44;10.70;99.90
14769;DHT22;7476;49.404;11.152;2023-05-08T02:30:13;10.50;99.90
14769;DHT22;7476;49.404;11.152;2023-05-08T02:32:41;10.50;99.90
14769;DHT22;7476;49.404;11.152;2023-05-08T02:35:10;10.60;99.90
14769;DHT22;7476;49.404;11.152;2023-05-08T02:37:40;10.50;99.90
14769;DHT22;7476;49.404;11.152;2023-05-08T02:40:09;10.50;99.90
14769;DHT22;7476;49.404;11.152;2023-05-08T02:42:36;10.40;99.90
14769;DHT22;7476;49.404;11.152;2023-05-08T02:45:04;10.30;99.90
14769;DHT22;7476;49.404;11.152;2023-05-08T02:47:38;10.40;99.90
14769;DHT22;7476;49.404;11.152;2023-05-08T02:50:13;10.50;99.90
14769;DHT22;7476;49.404;11.152;2023-05-08T02:52:46;10.50;99.90
14769;DHT22;7476;49.404;11.152;2023-05-08T02:55:19;10.50;99.90
14769;DHT22;7476;49.404;11.152;2023-05-08T02:57:55;10.50;99.90
14769;DHT22;7476;49.404;11.152;2023-05-08T03:00:27;10.50;99.90
14769;DHT22;7476;49.404;11.152;2023-05-08T03:03:00;10.40;99.90
14769;DHT22;7476;49.404;11.152;2023-05-08T03:05:32;10.40;99.90
14769;DHT22;7476;49.404;11.152;2023-05-08T03:08:05;10.40;99.90
14769;DHT22;7476;49.404;11.152;2023-05-08T03:10:34;10.40;99.90
14769;DHT22;7476;49.404;11.152;2023-05-08T03:13:04;10.40;99.90
14769;DHT22;7476;49.404;11.152;2023-05-08T03:15:34;10.40;99.90
14769;DHT22;7476;49.404;11.152;2023-05-08T03:18:06;10.30;99.90
14769;DHT22;7476;49.404;11.152;2023-05-08T03:20:38;10.30;99.90
14769;DHT22;7476;49.404;11.152;2023-05-08T03:23:07;10.30;99.90
14769;DHT22;7476;49.404;11.152;2023-05-08T03:25:36;10.20;99.90
14769;DHT22;7476;49.404;11.152;2023-05-08T03:28:05;10.20;99.90
14769;DHT22;7476;49.404;11.152;2023-05-08T03:30:35;10.20;99.90
14769;DHT22;7476;49.404;11.152;2023-05-08T03:33:03;10.20;99.90
14769;DHT22;7476;49.404;11.152;2023-05-08T03:35:35;10.20;99.90
14769;DHT22;7476;49.404;11.152;2023-05-08T03:38:02;10.20;99.90
14769;DHT22;7476;49.404;11.152;2023-05-08T03:40:32;10.20;99.90
14769;DHT22;7476;49.404;11.152;2023-05-08T03:43:04;10.20;99.90
14769;DHT22;7476;49.404;11.152;2023-05-08T03:45:34;10.20;99.90
14769;DHT22;7476;49.404;11.152;2023-05-08T03:48:00;10.10;99.90
14769;DHT22;7476;49.404;11.152;2023-05-08T03:50:29;10.10;99.90
14769;DHT22;7476;49.404;11.152;2023-05-08T03:52:57;10.00;99.90
14769;DHT22;7476;49.404;11.152;2023-05-08T03:55:24;10.00;99.90
14769;DHT22;7476;49.404;11.152;2023-05-08T03:57:56;10.00;99.90
14769;DHT22;7476;49.404;11.152;2023-05-08T04:00:31;10.00;99.90
14769;DHT22;7476;49.404;11.152;2023-05-08T04:03:10;10.00;99.90
14769;DHT22;7476;49.404;11.152;2023-05-08T04:05:46;10.10;99.90
14769;DHT22;7476;49.404;11.152;2023-05-08T04:08:18;10.10;99.90
14769;DHT22;7476;49.404;11.152;2023-05-08T04:10:48;10.10;99.90
14769;DHT22;7476;49.404;11.152;2023-05-08T04:13:24;10.10;99.90
14769;DHT22;7476;49.404;11.152;2023-05-08T04:16:04;10.10;99.90
14769;DHT22;7476;49.404;11.152;2023-05-08T04:18:35;10.20;99.90
14769;DHT22;7476;49.404;11.152;2023-05-08T04:21:08;10.10;99.90
14769;DHT22;7476;49.404;11.152;2023-05-08T04:23:38;10.20;99.90
14769;DHT22;7476;49.404;11.152;2023-05-08T04:26:05;10.20;99.90
14769;DHT22;7476;49.404;11.152;2023-05-08T04:28:34;10.20;99.90
14769;DHT22;7476;49.404;11.152;2023-05-08T04:31:02;10.20;99.90
14769;DHT22;7476;49.404;11.152;2023-05-08T04:33:30;10.20;99.90
14769;DHT22;7476;49.404;11.152;2023-05-08T04:36:00;10.30;99.90
14769;DHT22;7476;49.404;11.152;2023-05-08T04:38:26;10.30;99.90
14769;DHT22;7476;49.404;11.152;2023-05-08T04:40:53;10.40;99.90
14769;DHT22;7476;49.404;11.152;2023-05-08T04:43:20;10.40;99.90
14769;DHT22;7476;49.404;11.152;2023-05-08T04:45:48;10.50;99.90
14769;DHT22;7476;49.404;11.152;2023-05-08T04:48:15;10.50;99.90
14769;DHT22;7476;49.404;11.152;2023-05-08T04:50:43;10.60;99.90
14769;DHT22;7476;49.404;11.152;2023-05-08T04:53:10;10.60;99.90
14769;DHT22;7476;49.404;11.152;2023-05-08T04:55:36;10.60;99.90
14769;DHT22;7476;49.404;11.152;2023-05-08T04:58:03;10.70;99.90
14769;DHT22;7476;49.404;11.152;2023-05-08T05:00:30;10.70;99.90
14769;DHT22;7476;49.404;11.152;2023-05-08T05:02:58;10.80;99.90
14769;DHT22;7476;49.404;11.152;2023-05-08T05:05:24;10.80;99.90
14769;DHT22;7476;49.404;11.152;2023-05-08T05:07:51;10.90;99.90
14769;DHT22;7476;49.404;11.152;2023-05-08T05:10:18;11.00;99.90
14769;DHT22;7476;49.404;11.152;2023-05-08T05:12:44;11.10;99.90
14769;DHT22;7476;49.404;11.152;2023-05-08T05:15:11;11.10;99.90
14769;DHT22;7476;49.404;11.152;2023-05-08T05:17:39;11.20;99.90
14769;DHT22;7476;49.404;11.152;2023-05-08T05:20:08;11.30;99.90
14769;DHT22;7476;49.404;11.152;2023-05-08T05:22:35;11.20;99.90
14769;DHT22;7476;49.404;11.152;2023-05-08T05:25:02;11.20;99.90
14769;DHT22;7476;49.404;11.152;2023-05-08T05:27:29;11.20;99.90
14769;DHT22;7476;49.404;11.152;2023-05-08T05:29:56;11.20;99.90
14769;DHT22;7476;49.404;11.152;2023-05-08T05:32:23;11.30;99.90
14769;DHT22;7476;49.404;11.152;2023-05-08T05:34:50;11.50;99.90
14769;DHT22;7476;49.404;11.152;2023-05-08T05:37:18;11.50;99.90
14769;DHT22;7476;49.404;11.152;2023-05-08T05:39:45;11.80;99.90
14769;DHT22;7476;49.404;11.152;2023-05-08T05:42:11;12.20;99.90
14769;DHT22;7476;49.404;11.152;2023-05-08T05:44:38;12.20;99.90
14769;DHT22;7476;49.404;11.152;2023-05-08T05:47:05;12.20;99.90
14769;DHT22;7476;49.404;11.152;2023-05-08T05:49:34;12.60;99.90
14769;DHT22;7476;49.404;11.152;2023-05-08T05:52:01;12.50;99.90
14769;DHT22;7476;49.404;11.152;2023-05-08T05:54:29;12.60;99.90
14769;DHT22;7476;49.404;11.152;2023-05-08T05:56:55;12.80;99.90
14769;DHT22;7476;49.404;11.152;2023-05-08T05:59:22;13.00;99.90
14769;DHT22;7476;49.404;11.152;2023-05-08T06:01:49;12.80;99.90
14769;DHT22;7476;49.404;11.152;2023-05-08T06:04:16;12.70;99.90
14769;DHT22;7476;49.404;11.152;2023-05-08T06:06:42;12.70;99.90
14769;DHT22;7476;49.404;11.152;2023-05-08T06:09:09;12.90;99.90
14769;DHT22;7476;49.404;11.152;2023-05-08T06:11:37;12.90;99.90
14769;DHT22;7476;49.404;11.152;2023-05-08T06:14:04;12.70;99.90
14769;DHT22;7476;49.404;11.152;2023-05-08T06:16:30;12.90;99.90
14769;DHT22;7476;49.404;11.152;2023-05-08T06:18:57;13.40;99.90
14769;DHT22;7476;49.404;11.152;2023-05-08T06:21:23;13.40;99.90
14769;DHT22;7476;49.404;11.152;2023-05-08T06:23:51;13.20;99.90
14769;DHT22;7476;49.404;11.152;2023-05-08T06:26:17;13.20;99.90
14769;DHT22;7476;49.404;11.152;2023-05-08T06:28:45;13.20;99.90
14769;DHT22;7476;49.404;11.152;2023-05-08T06:31:12;13.40;99.90
14769;DHT22;7476;49.404;11.152;2023-05-08T06:33:38;13.90;99.90
14769;DHT22;7476;49.404;11.152;2023-05-08T06:36:06;14.30;99.90
14769;DHT22;7476;49.404;11.152;2023-05-08T06:38:32;14.20;99.90
14769;DHT22;7476;49.404;11.152;2023-05-08T06:40:59;14.50;99.90
14769;DHT22;7476;49.404;11.152;2023-05-08T06:43:26;15.10;99.90
14769;DHT22;7476;49.404;11.152;2023-05-08T06:45:53;14.50;99.90
14769;DHT22;7476;49.404;11.152;2023-05-08T06:48:20;14.40;99.90
14769;DHT22;7476;49.404;11.152;2023-05-08T06:50:47;14.20;99.90
14769;DHT22;7476;49.404;11.152;2023-05-08T06:53:14;13.90;99.90
14769;DHT22;7476;49.404;11.152;2023-05-08T06:55:42;14.00;99.90
14769;DHT22;7476;49.404;11.152;2023-05-08T06:58:08;14.00;99.90
14769;DHT22;7476;49.404;11.152;2023-05-08T07:00:35;13.80;99.90
14769;DHT22;7476;49.404;11.152;2023-05-08T07:03:03;13.70;99.90
14769;DHT22;7476;49.404;11.152;2023-05-08T07:05:30;13.90;99.90
14769;DHT22;7476;49.404;11.152;2023-05-08T07:07:56;13.80;99.90
14769;DHT22;7476;49.404;11.152;2023-05-08T07:10:23;14.30;99.90
14769;DHT22;7476;49.404;11.152;2023-05-08T07:12:50;14.40;99.90
14769;DHT22;7476;49.404;11.152;2023-05-08T07:15:17;14.20;99.90
14769;DHT22;7476;49.404;11.152;2023-05-08T07:17:44;14.20;99.90
14769;DHT22;7476;49.404;11.152;2023-05-08T07:20:12;14.50;99.90
14769;DHT22;7476;49.404;11.152;2023-05-08T07:22:39;15.30;99.90
14769;DHT22;7476;49.404;11.152;2023-05-08T07:25:06;16.10;99.90
14769;DHT22;7476;49.404;11.152;2023-05-08T07:27:33;16.80;99.90
14769;DHT22;7476;49.404;11.152;2023-05-08T07:30:00;16.00;99.90
14769;DHT22;7476;49.404;11.152;2023-05-08T07:32:28;16.50;99.90
14769;DHT22;7476;49.404;11.152;2023-05-08T07:34:56;16.70;99.90
14769;DHT22;7476;49.404;11.152;2023-05-08T07:37:24;16.90;99.90
14769;DHT22;7476;49.404;11.152;2023-05-08T07:39:50;17.30;99.90
14769;DHT22;7476;49.404;11.152;2023-05-08T07:42:17;16.10;99.90
14769;DHT22;7476;49.404;11.152;2023-05-08T07:44:43;15.50;99.90
14769;DHT22;7476;49.404;11.152;2023-05-08T07:47:10;15.50;99.90
14769;DHT22;7476;49.404;11.152;2023-05-08T07:49:37;15.90;99.90
14769;DHT22;7476;49.404;11.152;2023-05-08T07:52:04;16.20;99.90
14769;DHT22;7476;49.404;11.152;2023-05-08T07:54:32;15.50;99.90
14769;DHT22;7476;49.404;11.152;2023-05-08T07:56:58;15.70;99.90
14769;DHT22;7476;49.404;11.152;2023-05-08T07:59:25;15.60;99.90
14769;DHT22;7476;49.404;11.152;2023-05-08T08:01:52;15.60;99.90
14769;DHT22;7476;49.404;11.152;2023-05-08T08:04:18;16.30;99.90
14769;DHT22;7476;49.404;11.152;2023-05-08T08:06:45;16.20;99.90
14769;DHT22;7476;49.404;11.152;2023-05-08T08:09:12;16.20;99.90
14769;DHT22;7476;49.404;11.152;2023-05-08T08:11:40;17.10;99.90
14769;DHT22;7476;49.404;11.152;2023-05-08T08:14:06;18.00;99.90
14769;DHT22;7476;49.404;11.152;2023-05-08T08:16:33;17.00;99.90
14769;DHT22;7476;49.404;11.152;2023-05-08T08:18:59;16.90;99.90
14769;DHT22;7476;49.404;11.152;2023-05-08T08:21:26;17.90;99.90
14769;DHT22;7476;49.404;11.152;2023-05-08T08:23:53;18.60;99.90
14769;DHT22;7476;49.404;11.152;2023-05-08T08:26:19;18.70;99.90
14769;DHT22;7476;49.404;11.152;2023-05-08T08:28:47;19.40;99.90
14769;DHT22;7476;49.404;11.152;2023-05-08T08:31:14;18.40;99.90
14769;DHT22;7476;49.404;11.152;2023-05-08T08:33:41;17.00;99.90
14769;DHT22;7476;49.404;11.152;2023-05-08T08:36:12;17.00;99.90
14769;DHT22;7476;49.404;11.152;2023-05-08T08:38:38;17.70;99.90
14769;DHT22;7476;49.404;11.152;2023-05-08T08:41:05;18.00;99.90
14769;DHT22;7476;49.404;11.152;2023-05-08T08:43:32;18.90;99.90
14769;DHT22;7476;49.404;11.152;2023-05-08T08:46:02;19.20;99.90
14769;DHT22;7476;49.404;11.152;2023-05-08T08:48:37;18.50;99.90
14769;DHT22;7476;49.404;11.152;2023-05-08T08:51:06;19.50;99.90
14769;DHT22;7476;49.404;11.152;2023-05-08T08:53:41;18.80;99.90
14769;DHT22;7476;49.404;11.152;2023-05-08T08:56:08;19.70;99.90
14769;DHT22;7476;49.404;11.152;2023-05-08T08:58:42;20.70;99.90
14769;DHT22;7476;49.404;11.152;2023-05-08T09:01:15;21.40;99.90
14769;DHT22;7476;49.404;11.152;2023-05-08T09:03:42;19.00;99.90
14769;DHT22;7476;49.404;11.152;2023-05-08T09:06:09;18.50;99.90
14769;DHT22;7476;49.404;11.152;2023-05-08T09:08:37;19.10;99.90
14769;DHT22;7476;49.404;11.152;2023-05-08T09:11:04;20.20;99.90
14769;DHT22;7476;49.404;11.152;2023-05-08T09:13:30;21.00;99.90
14769;DHT22;7476;49.404;11.152;2023-05-08T09:15:57;20.10;99.90
14769;DHT22;7476;49.404;11.152;2023-05-08T09:18:26;19.00;99.90
14769;DHT22;7476;49.404;11.152;2023-05-08T09:20:52;19.10;99.90
14769;DHT22;7476;49.404;11.152;2023-05-08T09:23:19;19.30;99.90
14769;DHT22;7476;49.404;11.152;2023-05-08T09:25:47;18.50;99.90
14769;DHT22;7476;49.404;11.152;2023-05-08T09:28:15;18.20;99.90
14769;DHT22;7476;49.404;11.152;2023-05-08T09:30:48;18.90;99.90
14769;DHT22;7476;49.404;11.152;2023-05-08T09:33:15;19.50;99.90
14769;DHT22;7476;49.404;11.152;2023-05-08T09:35:43;19.30;99.90
14769;DHT22;7476;49.404;11.152;2023-05-08T09:38:31;19.50;99.90
14769;DHT22;7476;49.404;11.152;2023-05-08T09:41:05;18.60;99.90
14769;DHT22;7476;49.404;11.152;2023-05-08T09:43:33;19.00;99.90
14769;DHT22;7476;49.404;11.152;2023-05-08T09:46:19;19.30;99.90
14769;DHT22;7476;49.404;11.152;2023-05-08T09:48:46;19.60;99.90
14769;DHT22;7476;49.404;11.152;2023-05-08T09:51:14;20.40;99.90
14769;DHT22;7476;49.404;11.152;2023-05-08T09:53:41;21.30;99.90
14769;DHT22;7476;49.404;11.152;2023-05-08T09:56:08;21.60;99.90
14769;DHT22;7476;49.404;11.152;2023-05-08T09:58:38;21.90;99.90
14769;DHT22;7476;49.404;11.152;2023-05-08T10:01:05;21.30;99.90
14769;DHT22;7476;49.404;11.152;2023-05-08T10:03:45;21.30;99.90
14769;DHT22;7476;49.404;11.152;2023-05-08T10:06:15;21.30;99.90
14769;DHT22;7476;49.404;11.152;2023-05-08T10:08:41;21.70;99.90
14769;DHT22;7476;49.404;11.152;2023-05-08T10:11:15;20.70;99.90
14769;DHT22;7476;49.404;11.152;2023-05-08T10:13:42;20.50;99.90
14769;DHT22;7476;49.404;11.152;2023-05-08T10:16:13;20.60;99.90
14769;DHT22;7476;49.404;11.152;2023-05-08T10:18:45;20.60;99.90
14769;DHT22;7476;49.404;11.152;2023-05-08T10:21:15;20.80;99.90
14769;DHT22;7476;49.404;11.152;2023-05-08T10:23:42;20.30;99.90
14769;DHT22;7476;49.404;11.152;2023-05-08T10:26:12;21.30;99.90
14769;DHT22;7476;49.404;11.152;2023-05-08T10:28:42;22.00;99.90
14769;DHT22;7476;49.404;11.152;2023-05-08T10:31:11;21.70;99.90
14769;DHT22;7476;49.404;11.152;2023-05-08T10:33:40;21.60;99.90
14769;DHT22;7476;49.404;11.152;2023-05-08T10:36:10;21.50;99.90
14769;DHT22;7476;49.404;11.152;2023-05-08T10:38:40;21.50;99.90
14769;DHT22;7476;49.404;11.152;2023-05-08T10:41:07;22.20;99.90
14769;DHT22;7476;49.404;11.152;2023-05-08T10:43:35;22.80;99.90
14769;DHT22;7476;49.404;11.152;2023-05-08T10:46:10;23.40;99.90
14769;DHT22;7476;49.404;11.152;2023-05-08T10:48:46;21.80;99.90
14769;DHT22;7476;49.404;11.152;2023-05-08T10:51:18;21.80;99.90
14769;DHT22;7476;49.404;11.152;2023-05-08T10:53:52;21.40;99.90
14769;DHT22;7476;49.404;11.152;2023-05-08T10:56:25;22.30;99.90
14769;DHT22;7476;49.404;11.152;2023-05-08T10:58:55;22.30;99.90
14769;DHT22;7476;49.404;11.152;2023-05-08T11:01:23;21.30;99.90
14769;DHT22;7476;49.404;11.152;2023-05-08T11:03:50;22.10;99.90
14769;DHT22;7476;49.404;11.152;2023-05-08T11:06:40;21.90;99.90
14769;DHT22;7476;49.404;11.152;2023-05-08T11:09:06;22.00;99.90
14769;DHT22;7476;49.404;11.152;2023-05-08T11:11:37;22.50;99.90
14769;DHT22;7476;49.404;11.152;2023-05-08T11:14:13;22.70;99.90
14769;DHT22;7476;49.404;11.152;2023-05-08T11:17:05;22.70;99.90
14769;DHT22;7476;49.404;11.152;2023-05-08T11:19:32;22.70;99.90
14769;DHT22;7476;49.404;11.152;2023-05-08T11:22:23;22.80;99.90
14769;DHT22;7476;49.404;11.152;2023-05-08T11:25:01;22.50;99.90
14769;DHT22;7476;49.404;11.152;2023-05-08T11:27:35;21.90;99.90
14769;DHT22;7476;49.404;11.152;2023-05-08T11:30:20;22.10;99.90
14769;DHT22;7476;49.404;11.152;2023-05-08T11:32:58;23.00;99.90
14769;DHT22;7476;49.404;11.152;2023-05-08T11:35:40;23.60;99.90
14769;DHT22;7476;49.404;11.152;2023-05-08T11:38:13;24.00;99.90
14769;DHT22;7476;49.404;11.152;2023-05-08T11:40:48;23.90;99.90
14769;DHT22;7476;49.404;11.152;2023-05-08T11:43:31;24.30;99.90
14769;DHT22;7476;49.404;11.152;2023-05-08T11:46:03;23.90;99.90
14769;DHT22;7476;49.404;11.152;2023-05-08T11:48:31;22.80;99.90
14769;DHT22;7476;49.404;11.152;2023-05-08T11:50:58;21.30;99.90
14769;DHT22;7476;49.404;11.152;2023-05-08T11:53:25;21.10;99.90
14769;DHT22;7476;49.404;11.152;2023-05-08T11:55:53;21.00;99.90
14769;DHT22;7476;49.404;11.152;2023-05-08T11:58:20;21.40;99.90
14769;DHT22;7476;49.404;11.152;2023-05-08T12:00:47;22.40;99.90
14769;DHT22;7476;49.404;11.152;2023-05-08T12:03:17;23.20;99.90
14769;DHT22;7476;49.404;11.152;2023-05-08T12:05:44;22.70;99.90
14769;DHT22;7476;49.404;11.152;2023-05-08T12:08:12;22.30;99.90
14769;DHT22;7476;49.404;11.152;2023-05-08T12:10:39;22.70;99.90
14769;DHT22;7476;49.404;11.152;2023-05-08T12:13:16;22.50;99.90
14769;DHT22;7476;49.404;11.152;2023-05-08T12:15:43;21.60;99.90
14769;DHT22;7476;49.404;11.152;2023-05-08T12:18:10;22.30;99.90
14769;DHT22;7476;49.404;11.152;2023-05-08T12:20:37;22.50;99.90
14769;DHT22;7476;49.404;11.152;2023-05-08T12:23:04;22.20;99.90
14769;DHT22;7476;49.404;11.152;2023-05-08T12:25:30;23.00;99.90
14769;DHT22;7476;49.404;11.152;2023-05-08T12:27:57;24.10;99.90
14769;DHT22;7476;49.404;11.152;2023-05-08T12:30:26;23.60;99.90
14769;DHT22;7476;49.404;11.152;2023-05-08T12:32:53;22.60;99.90
14769;DHT22;7476;49.404;11.152;2023-05-08T12:35:20;21.80;99.90
14769;DHT22;7476;49.404;11.152;2023-05-08T12:37:49;22.60;99.90
14769;DHT22;7476;49.404;11.152;2023-05-08T12:40:27;22.20;99.90
14769;DHT22;7476;49.404;11.152;2023-05-08T12:42:54;22.60;99.90
14769;DHT22;7476;49.404;11.152;2023-05-08T12:45:22;23.70;99.90
14769;DHT22;7476;49.404;11.152;2023-05-08T12:47:52;23.40;99.90
14769;DHT22;7476;49.404;11.152;2023-05-08T12:50:20;23.50;99.90
14769;DHT22;7476;49.404;11.152;2023-05-08T12:52:47;22.40;99.90
14769;DHT22;7476;49.404;11.152;2023-05-08T12:55:22;22.70;99.90
14769;DHT22;7476;49.404;11.152;2023-05-08T12:57:57;23.90;99.90
14769;DHT22;7476;49.404;11.152;2023-05-08T13:00:24;25.00;99.90
14769;DHT22;7476;49.404;11.152;2023-05-08T13:02:53;24.40;99.90
14769;DHT22;7476;49.404;11.152;2023-05-08T13:05:21;24.40;99.90
14769;DHT22;7476;49.404;11.152;2023-05-08T13:07:48;24.20;99.90
14769;DHT22;7476;49.404;11.152;2023-05-08T13:10:15;24.50;99.90
14769;DHT22;7476;49.404;11.152;2023-05-08T13:12:43;23.20;99.90
14769;DHT22;7476;49.404;11.152;2023-05-08T13:15:10;23.30;99.90
14769;DHT22;7476;49.404;11.152;2023-05-08T13:17:36;23.90;99.90
14769;DHT22;7476;49.404;11.152;2023-05-08T13:20:06;24.70;99.90
14769;DHT22;7476;49.404;11.152;2023-05-08T13:22:33;25.70;99.90
14769;DHT22;7476;49.404;11.152;2023-05-08T13:25:00;24.80;99.90
14769;DHT22;7476;49.404;11.152;2023-05-08T13:27:26;24.70;99.90
14769;DHT22;7476;49.404;11.152;2023-05-08T13:29:53;24.10;99.90
14769;DHT22;7476;49.404;11.152;2023-05-08T13:32:20;23.80;99.90
14769;DHT22;7476;49.404;11.152;2023-05-08T13:34:46;23.50;99.90
14769;DHT22;7476;49.404;11.152;2023-05-08T13:37:14;23.00;99.90
14769;DHT22;7476;49.404;11.152;2023-05-08T13:39:41;22.50;99.90
14769;DHT22;7476;49.404;11.152;2023-05-08T13:42:07;23.30;99.90
14769;DHT22;7476;49.404;11.152;2023-05-08T13:44:34;24.30;99.90
14769;DHT22;7476;49.404;11.152;2023-05-08T13:47:01;23.40;99.90
14769;DHT22;7476;49.404;11.152;2023-05-08T13:49:27;23.20;99.90
14769;DHT22;7476;49.404;11.152;2023-05-08T13:51:54;24.40;99.90
14769;DHT22;7476;49.404;11.152;2023-05-08T13:54:22;25.20;99.90
14769;DHT22;7476;49.404;11.152;2023-05-08T13:56:48;25.50;99.90
14769;DHT22;7476;49.404;11.152;2023-05-08T13:59:15;23.20;99.90
14769;DHT22;7476;49.404;11.152;2023-05-08T14:01:42;22.50;99.90
14769;DHT22;7476;49.404;11.152;2023-05-08T14:04:08;23.70;99.90
14769;DHT22;7476;49.404;11.152;2023-05-08T14:06:35;23.60;99.90
14769;DHT22;7476;49.404;11.152;2023-05-08T14:09:02;23.80;99.90
14769;DHT22;7476;49.404;11.152;2023-05-08T14:11:30;23.20;99.90
14769;DHT22;7476;49.404;11.152;2023-05-08T14:13:56;23.80;99.90
14769;DHT22;7476;49.404;11.152;2023-05-08T14:16:23;22.40;99.90
14769;DHT22;7476;49.404;11.152;2023-05-08T14:18:50;22.00;99.90
14769;DHT22;7476;49.404;11.152;2023-05-08T14:21:16;21.90;99.90
14769;DHT22;7476;49.404;11.152;2023-05-08T14:23:43;21.90;99.90
14769;DHT22;7476;49.404;11.152;2023-05-08T14:26:10;21.90;99.90
14769;DHT22;7476;49.404;11.152;2023-05-08T14:28:38;22.00;99.90
14769;DHT22;7476;49.404;11.152;2023-05-08T14:31:04;22.70;99.90
14769;DHT22;7476;49.404;11.152;2023-05-08T14:33:31;22.70;99.90
14769;DHT22;7476;49.404;11.152;2023-05-08T14:35:58;23.00;99.90
14769;DHT22;7476;49.404;11.152;2023-05-08T14:38:25;21.90;99.90
14769;DHT22;7476;49.404;11.152;2023-05-08T14:40:51;22.40;99.90
14769;DHT22;7476;49.404;11.152;2023-05-08T14:43:19;22.60;99.90
14769;DHT22;7476;49.404;11.152;2023-05-08T14:45:47;22.60;99.90
14769;DHT22;7476;49.404;11.152;2023-05-08T14:48:14;23.10;99.90
14769;DHT22;7476;49.404;11.152;2023-05-08T14:50:40;23.00;99.90
14769;DHT22;7476;49.404;11.152;2023-05-08T14:53:07;23.20;99.90
14769;DHT22;7476;49.404;11.152;2023-05-08T14:55:34;22.70;99.90
14769;DHT22;7476;49.404;11.152;2023-05-08T14:58:00;22.50;99.90
14769;DHT22;7476;49.404;11.152;2023-05-08T15:00:27;21.50;99.90
14769;DHT22;7476;49.404;11.152;2023-05-08T15:02:55;22.00;99.90
14769;DHT22;7476;49.404;11.152;2023-05-08T15:05:22;21.40;99.90
14769;DHT22;7476;49.404;11.152;2023-05-08T15:07:48;20.40;99.90
14769;DHT22;7476;49.404;11.152;2023-05-08T15:10:15;20.40;99.90
14769;DHT22;7476;49.404;11.152;2023-05-08T15:12:42;20.30;99.90
14769;DHT22;7476;49.404;11.152;2023-05-08T15:15:09;20.10;99.90
14769;DHT22;7476;49.404;11.152;2023-05-08T15:17:36;20.60;99.90
14769;DHT22;7476;49.404;11.152;2023-05-08T15:20:08;21.00;99.90
14769;DHT22;7476;49.404;11.152;2023-05-08T15:22:34;21.50;99.90
14769;DHT22;7476;49.404;11.152;2023-05-08T15:25:01;21.50;99.90
14769;DHT22;7476;49.404;11.152;2023-05-08T15:27:28;21.50;99.90
14769;DHT22;7476;49.404;11.152;2023-05-08T15:29:55;21.60;99.90
14769;DHT22;7476;49.404;11.152;2023-05-08T15:32:21;21.30;99.90
14769;DHT22;7476;49.404;11.152;2023-05-08T15:34:48;20.70;99.90
14769;DHT22;7476;49.404;11.152;2023-05-08T15:37:16;20.20;99.90
14769;DHT22;7476;49.404;11.152;2023-05-08T15:39:43;19.80;99.90
14769;DHT22;7476;49.404;11.152;2023-05-08T15:42:09;19.90;99.90
14769;DHT22;7476;49.404;11.152;2023-05-08T15:44:36;19.70;99.90
14769;DHT22;7476;49.404;11.152;2023-05-08T15:47:03;19.80;99.90